Airfield :
LOGIN :

Register | Disclaimer

   EN    FR    IT 

 










Legend :    VFR   Marginal VFR   IFR   Intensive IFR   Very Intensive IFR
Visi :
Ceiling :
>= 8 km
>= 3000ft
5 to 8 km
1000 to 3000 ft
1500m to 5 km
500 to 1000 ft
800 to 1500m
200 to 500 ft
< 800m
< 200 ft
Symbols :   Thunderstorms  Fog  Heavy snow  Heavy precipitations  Wind > 20 kt
SIGMETs :     Misc.  Thunderstorms  Icing  Turbulence  Mountain Waves  Volcanic Ashes







- Airport Elevation : 400 ft
- IATA code : BNX


LQBK - Banja Luka

CURRENT METAR :
  • 200730Z VRB01KT 0100 R17/0225N FZFG NSC M01/M02 Q1020 NOSIG

EXPIRED METARs :
  • 200700Z 34003KT 0100 R17/0200N FZFG NSC M01/M02 Q1020 NOSIG
  • 200630Z 36002KT 0100 R17/0225N FZFG NSC M01/M01 Q1019 NOSIG
  • 200600Z VRB02KT 0100 R17/0300N FZFG NSC M01/M01 Q1019 NOSIG
  • 200530Z VRB02KT 0150 R17/0225N FZFG NSC M01/M01 Q1019 NOSIG
  • 200500Z VRB02KT 0100 R17/0200N FZFG NSC M01/M01 Q1019 NOSIG

TAF TAF LQBK
Valid from the 20 at 06:00 until the 21 at 06:00 UTC


200500Z 2006/2106 21006KT CAVOK TX08/2013Z TNM01/2006Z
TEMPO 2006/2008 0200 FZFG VV002
PROB30 2103/2106 3000 BR
No reported NOTAMs for that airfield.



MET'MAP, your aeronautical weather chart ! - Copyright ORBIFLY December 2007 - Disclaimer

ORBIFLY MET'MAP TEAM :

Programming & Development : Alexandra Zaïnal
Concept & Development : Baudouin d'Aumeries
Co-Development & Prog : Marc-Olivier Méhu
Technical & hardware support : Manuel Goepfert

Contact : metmap@orbifly.com




SOURCES & CREDITS :

   NOAA